Time;durP1;ratioP1;P1;durP2;ratioP2;P2;SDS_P1;SDS_P2;PMS_P1;PMS_P2;Temp;Humidity;BMP_temperature;BMP_pressure;BME280_temperature;BME280_humidity;BME280_pressure;Samples;Min_cycle;Max_cycle;Signal;HPM_P1;HPM_P2
2022/12/02 00:01:36;;;;;;;;;;;;;;;;;;5095725;28;19915;-73
2022/12/02 00:04:02;;;;;;;;;;;;;;;;;;5094174;28;19908;-73
2022/12/02 00:06:28;;;;;;;;;;;;;;;;;;5096294;28;19916;-72
2022/12/02 00:08:54;;;;;;;;;;;;;;;;;;5096562;28;19908;-73
2022/12/02 00:11:20;;;;;;;;;;;;;;;;;;5095687;28;19908;-72
2022/12/02 00:13:46;;;;;;;;;;;;;;;;;;5096060;28;20003;-72
2022/12/02 00:16:12;;;;;;;;;;;;;;;;;;5094734;28;19953;-73
2022/12/02 00:18:38;;;;;;;;;;;;;;;;;;5095616;28;19955;-73
2022/12/02 00:21:04;;;;;;;;;;;;;;;;;;5095875;28;19912;-73
2022/12/02 00:23:30;;;;;;;;;;;;;;;;;;5094589;28;19963;-73
2022/12/02 00:25:56;;;;;;;;;;;;;;;;;;5095361;28;19916;-73
2022/12/02 00:28:22;;;;;;;;;;;;;;;;;;5095827;28;19912;-74
2022/12/02 00:30:48;;;;;;;;;;;;;;;;;;5095597;28;19915;-74
2022/12/02 00:33:14;;;;;;;;;;;;;;;;;;5096000;28;20345;-74
2022/12/02 00:35:40;;;;;;;;;;;;;;;;;;5094386;28;19908;-74
2022/12/02 00:38:06;;;;;;;;;;;;;;;;;;5095479;28;20010;-73
2022/12/02 00:40:32;;;;;;;;;;;;;;;;;;5094237;28;19909;-73
2022/12/02 00:46:30;;;;;;;;;;;;;;;;;;5095485;28;19915;-73
2022/12/02 00:48:28;;;;;;;;;;;;;;;;;;5075252;28;20276;-72
2022/12/02 00:50:54;;;;;;;;;;;;;;;;;;5075086;28;19908;-72
2022/12/02 00:53:20;;;;;;;;;;;;;;;;;;5074704;28;20430;-72
2022/12/02 00:55:46;;;;;;;;;;;;;;;;;;5075600;28;20246;-72
2022/12/02 00:58:12;;;;;;;;;;;;;;;;;;5057037;28;19908;-72
2022/12/02 01:00:38;;;;;;;;;;;;;;;;;;5074495;28;19908;-72
2022/12/02 01:03:04;;;;;;;;;;;;;;;;;;5056944;28;19909;-73
2022/12/02 01:05:30;;;;;;;;;;;;;;;;;;5074954;28;19951;-73
2022/12/02 01:07:56;;;;;;;;;;;;;;;;;;5056478;28;19966;-73
2022/12/02 01:10:22;;;;;;;;;;;;;;;;;;5074785;28;19912;-73
2022/12/02 01:12:48;;;;;;;;;;;;;;;;;;5074746;28;19915;-73
2022/12/02 01:15:14;;;;;;;;;;;;;;;;;;5074090;28;19909;-73
2022/12/02 01:17:39;;;;;;;;;;;;;;;;;;5074885;28;19923;-73
2022/12/02 01:20:05;;;;;;;;;;;;;;;;;;5074716;28;20337;-73
2022/12/02 01:22:31;;;;;;;;;;;;;;;;;;5074530;28;19909;-73
2022/12/02 01:24:57;;;;;;;;;;;;;;;;;;5056628;28;19908;-73
2022/12/02 01:27:23;;;;;;;;;;;;;;;;;;5073879;28;20351;-73
2022/12/02 01:29:49;;;;;;;;;;;;;;;;;;5074278;28;19908;-73
2022/12/02 01:32:16;;;;;;;;;;;;;;;;;;5056410;28;19916;-73
2022/12/02 01:34:42;;;;;;;;;;;;;;;;;;5073882;28;19908;-74
2022/12/02 01:37:08;;;;;;;;;;;;;;;;;;5074383;28;20379;-74
2022/12/02 01:39:34;;;;;;;;;;;;;;;;;;5074239;28;20329;-73
2022/12/02 01:42:00;;;;;;;;;;;;;;;;;;5073642;28;20327;-72
2022/12/02 01:44:26;;;;;;;;;;;;;;;;;;5075244;28;19924;-73
2022/12/02 01:46:52;;;;;;;;;;;;;;;;;;5092992;28;19958;-73
2022/12/02 01:49:18;;;;;;;;;;;;;;;;;;5092669;28;19908;-73
2022/12/02 01:51:44;;;;;;;;;;;;;;;;;;5094187;28;19963;-73
2022/12/02 01:54:10;;;;;;;;;;;;;;;;;;5094215;28;19908;-73
2022/12/02 01:56:36;;;;;;;;;;;;;;;;;;5093696;28;19953;-73
2022/12/02 01:59:01;;;;;;;;;;;;;;;;;;5093829;28;19912;-73
2022/12/02 02:01:27;;;;;;;;;;;;;;;;;;5094187;28;19916;-73
2022/12/02 02:03:53;;;;;;;;;;;;;;;;;;5093673;28;19908;-73
2022/12/02 02:06:19;;;;;;;;;;;;;;;;;;5094353;28;19970;-73
2022/12/02 02:08:45;;;;;;;;;;;;;;;;;;5094025;28;20279;-73
2022/12/02 02:11:11;;;;;;;;;;;;;;;;;;5093610;28;19912;-73
2022/12/02 02:13:37;;;;;;;;;;;;;;;;;;5093997;28;19912;-73
2022/12/02 02:16:03;;;;;;;;;;;;;;;;;;5094013;28;19909;-73
2022/12/02 02:18:29;;;;;;;;;;;;;;;;;;5093582;28;19908;-73
2022/12/02 02:20:55;;;;;;;;;;;;;;;;;;5093910;28;19915;-73
2022/12/02 02:23:21;;;;;;;;;;;;;;;;;;5093785;28;19912;-73
2022/12/02 02:25:47;;;;;;;;;;;;;;;;;;5095349;28;19970;-73
2022/12/02 02:28:13;;;;;;;;;;;;;;;;;;5096758;28;19957;-73
2022/12/02 02:30:39;;;;;;;;;;;;;;;;;;5097809;28;19911;-73
2022/12/02 02:33:05;;;;;;;;;;;;;;;;;;5097963;28;20013;-73
2022/12/02 02:35:31;;;;;;;;;;;;;;;;;;5096663;28;19920;-73
2022/12/02 02:37:56;;;;;;;;;;;;;;;;;;5097509;28;19908;-74
2022/12/02 02:40:22;;;;;;;;;;;;;;;;;;5096653;28;20004;-73
2022/12/02 02:42:48;;;;;;;;;;;;;;;;;;5096552;28;19908;-73
2022/12/02 02:45:14;;;;;;;;;;;;;;;;;;5097188;28;19930;-73
2022/12/02 02:47:40;;;;;;;;;;;;;;;;;;5079602;28;19912;-73
2022/12/02 02:50:06;;;;;;;;;;;;;;;;;;5097752;28;19955;-73
2022/12/02 02:52:32;;;;;;;;;;;;;;;;;;5097303;28;19909;-73
2022/12/02 02:54:58;;;;;;;;;;;;;;;;;;5097611;28;20352;-73
2022/12/02 02:57:24;;;;;;;;;;;;;;;;;;5079422;28;20352;-73
2022/12/02 02:59:50;;;;;;;;;;;;;;;;;;5097114;28;20332;-73
2022/12/02 03:02:16;;;;;;;;;;;;;;;;;;5097495;28;19908;-73
2022/12/02 03:04:42;;;;;;;;;;;;;;;;;;5097407;28;19953;-73
2022/12/02 03:07:08;;;;;;;;;;;;;;;;;;5078758;28;19959;-73
2022/12/02 03:09:34;;;;;;;;;;;;;;;;;;5097349;28;19908;-73
2022/12/02 03:12:00;;;;;;;;;;;;;;;;;;5097282;28;20013;-73
2022/12/02 03:14:26;;;;;;;;;;;;;;;;;;5078725;28;19908;-72
2022/12/02 03:16:52;;;;;;;;;;;;;;;;;;5097185;28;19908;-73
2022/12/02 03:19:17;;;;;;;;;;;;;;;;;;5097121;28;19909;-72
2022/12/02 03:21:44;;;;;;;;;;;;;;;;;;5096787;28;19954;-73
2022/12/02 03:24:09;;;;;;;;;;;;;;;;;;5097053;28;20067;-72
2022/12/02 03:26:35;;;;;;;;;;;;;;;;;;5078922;28;19916;-72
2022/12/02 03:29:01;;;;;;;;;;;;;;;;;;5096639;28;19919;-72
2022/12/02 03:31:27;;;;;;;;;;;;;;;;;;5097488;28;20349;-72
2022/12/02 03:33:53;;;;;;;;;;;;;;;;;;5078246;28;19908;-72
2022/12/02 03:36:19;;;;;;;;;;;;;;;;;;5096758;28;19908;-73
2022/12/02 03:38:45;;;;;;;;;;;;;;;;;;5078629;28;19908;-73
2022/12/02 03:41:11;;;;;;;;;;;;;;;;;;5078155;28;19962;-74
2022/12/02 03:43:37;;;;;;;;;;;;;;;;;;5096503;28;19912;-72
2022/12/02 03:46:03;;;;;;;;;;;;;;;;;;5078448;28;20253;-73
2022/12/02 03:48:29;;;;;;;;;;;;;;;;;;5096577;28;20288;-73
2022/12/02 03:50:55;;;;;;;;;;;;;;;;;;5096566;28;20280;-73
2022/12/02 03:53:21;;;;;;;;;;;;;;;;;;5096526;28;19912;-73
2022/12/02 03:55:47;;;;;;;;;;;;;;;;;;5096121;28;19908;-74
2022/12/02 03:58:13;;;;;;;;;;;;;;;;;;5096570;28;20485;-73
2022/12/02 04:00:38;;;;;;;;;;;;;;;;;;5096337;28;20279;-73
2022/12/02 04:03:04;;;;;;;;;;;;;;;;;;5095872;28;19955;-73
2022/12/02 04:05:30;;;;;;;;;;;;;;;;;;5096169;28;19970;-73
2022/12/02 04:07:56;;;;;;;;;;;;;;;;;;5096246;28;20010;-73
2022/12/02 04:10:22;;;;;;;;;;;;;;;;;;5095742;28;19954;-73
2022/12/02 04:12:48;;;;;;;;;;;;;;;;;;5096323;28;19908;-74
2022/12/02 04:15:14;;;;;;;;;;;;;;;;;;5096134;28;19912;-73
2022/12/02 04:17:40;;;;;;;;;;;;;;;;;;5077493;28;19915;-73
2022/12/02 04:20:06;;;;;;;;;;;;;;;;;;5095998;28;20002;-73
2022/12/02 04:22:32;;;;;;;;;;;;;;;;;;5095908;28;19908;-73
2022/12/02 04:24:59;;;;;;;;;;;;;;;;;;5095468;28;19909;-73
2022/12/02 04:27:25;;;;;;;;;;;;;;;;;;5095705;28;20360;-73
2022/12/02 04:29:51;;;;;;;;;;;;;;;;;;5095926;28;19965;-73
2022/12/02 04:32:17;;;;;;;;;;;;;;;;;;5095389;28;19908;-73
2022/12/02 04:34:43;;;;;;;;;;;;;;;;;;5077535;28;19908;-73
2022/12/02 04:37:09;;;;;;;;;;;;;;;;;;5095234;28;20381;-73
2022/12/02 04:39:34;;;;;;;;;;;;;;;;;;5095599;28;19992;-74
2022/12/02 04:42:00;;;;;;;;;;;;;;;;;;5095548;28;19912;-74
2022/12/02 04:44:26;;;;;;;;;;;;;;;;;;5084771;28;19919;-74
2022/12/02 04:46:52;;;;;;;;;;;;;;;;;;5095421;28;19923;-74
2022/12/02 04:49:18;;;;;;;;;;;;;;;;;;5093566;28;19908;-73
2022/12/02 04:51:44;;;;;;;;;;;;;;;;;;5095167;28;19915;-74
2022/12/02 04:54:10;;;;;;;;;;;;;;;;;;5094073;28;19915;-73
2022/12/02 04:56:36;;;;;;;;;;;;;;;;;;5094014;28;19908;-74
2022/12/02 04:59:02;;;;;;;;;;;;;;;;;;5094869;28;19908;-74
2022/12/02 05:01:28;;;;;;;;;;;;;;;;;;5095185;28;20363;-74
2022/12/02 05:03:54;;;;;;;;;;;;;;;;;;5095464;28;20280;-74
2022/12/02 05:06:20;;;;;;;;;;;;;;;;;;5094582;28;19917;-73
2022/12/02 05:08:46;;;;;;;;;;;;;;;;;;5095056;28;19930;-74
2022/12/02 05:11:12;;;;;;;;;;;;;;;;;;5094944;28;19908;-74
2022/12/02 05:13:38;;;;;;;;;;;;;;;;;;5094570;28;19914;-74
2022/12/02 05:16:04;;;;;;;;;;;;;;;;;;5095039;28;19908;-74
2022/12/02 05:18:30;;;;;;;;;;;;;;;;;;5093591;28;19915;-74
2022/12/02 05:20:56;;;;;;;;;;;;;;;;;;5094513;28;19912;-73
2022/12/02 05:23:21;;;;;;;;;;;;;;;;;;5094757;28;20276;-73
2022/12/02 05:25:48;;;;;;;;;;;;;;;;;;5094632;28;20321;-73
2022/12/02 05:28:14;;;;;;;;;;;;;;;;;;5094211;28;19912;-72
2022/12/02 05:30:40;;;;;;;;;;;;;;;;;;5093329;28;19908;-72
2022/12/02 05:33:06;;;;;;;;;;;;;;;;;;5094551;28;19961;-72
2022/12/02 05:35:32;;;;;;;;;;;;;;;;;;5094208;28;19991;-73
2022/12/02 05:37:58;;;;;;;;;;;;;;;;;;5094509;28;19934;-73
2022/12/02 05:40:24;;;;;;;;;;;;;;;;;;5094446;28;19910;-73
2022/12/02 05:42:52;;;;;;;;;;;;;;;;;;5094410;28;19915;-73
2022/12/02 05:45:18;;;;;;;;;;;;;;;;;;5094279;28;19920;-72
2022/12/02 05:47:44;;;;;;;;;;;;;;;;;;5076472;28;20003;-73
2022/12/02 05:50:10;;;;;;;;;;;;;;;;;;5094375;28;19908;-73
2022/12/02 05:52:36;;;;;;;;;;;;;;;;;;5094280;28;20336;-73
2022/12/02 05:55:02;;;;;;;;;;;;;;;;;;5093808;28;20253;-72
2022/12/02 05:57:28;;;;;;;;;;;;;;;;;;5076096;28;19951;-73
2022/12/02 05:59:54;;;;;;;;;;;;;;;;;;5093314;28;19915;-73
2022/12/02 06:02:20;;;;;;;;;;;;;;;;;;5093716;28;19908;-72
2022/12/02 06:04:46;;;;;;;;;;;;;;;;;;5094159;28;19985;-72
2022/12/02 06:07:12;;;;;;;;;;;;;;;;;;5075825;28;19920;-72
2022/12/02 06:09:37;;;;;;;;;;;;;;;;;;5068696;28;19915;-79
2022/12/02 06:12:03;;;;;;;;;;;;;;;;;;5082566;28;19944;-79
2022/12/02 06:14:29;;;;;;;;;;;;;;;;;;5055967;28;19958;-80
2022/12/02 06:16:55;;;;;;;;;;;;;;;;;;5071449;28;19908;-80
2022/12/02 06:19:21;;;;;;;;;;;;;;;;;;5072665;28;20395;-77
2022/12/02 06:21:47;;;;;;;;;;;;;;;;;;5065723;28;20328;-74
2022/12/02 06:24:13;;;;;;;;;;;;;;;;;;5093279;28;20271;-75
2022/12/02 06:26:39;;;;;;;;;;;;;;;;;;5093049;28;19915;-73
2022/12/02 06:29:05;;;;;;;;;;;;;;;;;;5064874;28;19977;-74
2022/12/02 06:31:32;;;;;;;;;;;;;;;;;;5058447;28;19964;-75
2022/12/02 06:33:58;;;;;;;;;;;;;;;;;;5052118;28;19951;-71
2022/12/02 06:36:24;;;;;;;;;;;;;;;;;;5052793;28;19908;-74
2022/12/02 06:38:50;;;;;;;;;;;;;;;;;;5038740;28;19916;-77
2022/12/02 06:41:16;;;;;;;;;;;;;;;;;;5050019;28;20435;-72
2022/12/02 06:45:03;;;;;;;;;;;;;;;;;;5059265;28;20019;-71
2022/12/02 06:46:29;;;;;;;;;;;;;;;;;;5090223;28;20030;-71
2022/12/02 06:48:55;;;;;;;;;;;;;;;;;;5089808;28;19908;-71
2022/12/02 06:51:21;;;;;;;;;;;;;;;;;;5090768;28;19912;-74
2022/12/02 06:53:47;;;;;;;;;;;;;;;;;;5091013;28;19957;-76
2022/12/02 06:56:13;;;;;;;;;;;;;;;;;;5091403;28;19943;-75
2022/12/02 06:58:39;;;;;;;;;;;;;;;;;;5091736;28;19915;-76
2022/12/02 07:01:05;;;;;;;;;;;;;;;;;;5091686;28;19915;-76
2022/12/02 07:03:31;;;;;;;;;;;;;;;;;;5091203;28;20376;-74
2022/12/02 07:05:57;;;;;;;;;;;;;;;;;;5092705;28;19966;-72
2022/12/02 07:08:23;;;;;;;;;;;;;;;;;;5091749;28;19973;-70
2022/12/02 07:10:49;;;;;;;;;;;;;;;;;;5092874;28;19954;-69
2022/12/02 07:13:15;;;;;;;;;;;;;;;;;;5094180;28;19912;-70
2022/12/02 07:15:46;;;;;;;;;;;;;;;;;;5087126;28;19963;-70
2022/12/02 07:18:17;;;;;;;;;;;;;;;;;;5103387;28;19924;-69
2022/12/02 07:20:50;;;;;;;;;;;;;;;;;;5114576;28;20445;-72
2022/12/02 07:23:17;;;;;;;;;;;;;;;;;;5114734;27;19908;-73
2022/12/02 07:25:51;;;;;;;;;;;;;;;;;;5114593;28;19911;-74
2022/12/02 07:28:24;;;;;;;;;;;;;;;;;;5107745;28;19923;-73
2022/12/02 07:30:53;;;;;;;;;;;;;;;;;;5096740;28;19947;-74
2022/12/02 07:33:22;;;;;;;;;;;;;;;;;;5094271;28;19908;-74
2022/12/02 07:35:53;;;;;;;;;;;;;;;;;;5090031;28;19955;-73
2022/12/02 07:38:22;;;;;;;;;;;;;;;;;;5077177;28;19933;-75
2022/12/02 07:40:49;;;;;;;;;;;;;;;;;;5084617;28;19920;-72
2022/12/02 07:43:17;;;;;;;;;;;;;;;;;;5082791;28;19944;-74
2022/12/02 07:45:49;;;;;;;;;;;;;;;;;;5075566;28;19916;-71
2022/12/02 07:48:21;;;;;;;;;;;;;;;;;;5081781;28;19987;-71
2022/12/02 07:50:50;;;;;;;;;;;;;;;;;;5087618;28;19938;-72
2022/12/02 07:53:20;;;;;;;;;;;;;;;;;;5084017;28;19908;-71
2022/12/02 07:55:46;;;;;;;;;;;;;;;;;;5079265;28;19917;-71
2022/12/02 07:58:18;;;;;;;;;;;;;;;;;;5089161;28;19919;-73
2022/12/02 08:00:50;;;;;;;;;;;;;;;;;;5093647;28;19912;-80
2022/12/02 08:03:20;;;;;;;;;;;;;;;;;;5094685;28;19961;-82
2022/12/02 08:05:49;;;;;;;;;;;;;;;;;;5095237;28;19917;-79
2022/12/02 08:08:19;;;;;;;;;;;;;;;;;;5093048;28;20375;-73
2022/12/02 08:10:47;;;;;;;;;;;;;;;;;;5095470;28;20372;-73
2022/12/02 08:13:18;;;;;;;;;;;;;;;;;;5095426;28;19915;-74
2022/12/02 08:15:48;;;;;;;;;;;;;;;;;;5095077;28;19936;-73
2022/12/02 08:18:18;;;;;;;;;;;;;;;;;;5092559;28;20006;-74
2022/12/02 08:20:47;;;;;;;;;;;;;;;;;;5085888;28;19912;-72
2022/12/02 08:23:17;;;;;;;;;;;;;;;;;;5092389;28;19915;-74
2022/12/02 08:25:48;;;;;;;;;;;;;;;;;;5087501;28;19912;-73
2022/12/02 08:28:21;;;;;;;;;;;;;;;;;;5099425;27;20272;-74
2022/12/02 08:30:53;;;;;;;;;;;;;;;;;;5075982;28;19919;-75
2022/12/02 08:33:22;;;;;;;;;;;;;;;;;;5084590;28;19919;-74
2022/12/02 08:35:51;;;;;;;;;;;;;;;;;;5082513;28;19974;-75
2022/12/02 08:38:21;;;;;;;;;;;;;;;;;;5077165;28;19912;-73
2022/12/02 08:40:53;;;;;;;;;;;;;;;;;;5085461;28;20285;-77
2022/12/02 08:43:24;;;;;;;;;;;;;;;;;;5080144;28;19908;-74
2022/12/02 08:45:56;;;;;;;;;;;;;;;;;;5080659;28;19920;-74
2022/12/02 08:48:27;;;;;;;;;;;;;;;;;;5092275;28;20393;-74
2022/12/02 08:50:58;;;;;;;;;;;;;;;;;;5089326;28;20275;-76
2022/12/02 08:53:29;;;;;;;;;;;;;;;;;;5093197;28;19919;-72
2022/12/02 08:55:59;;;;;;;;;;;;;;;;;;5093148;28;19912;-74
2022/12/02 08:58:26;;;;;;;;;;;;;;;;;;5093239;28;19915;-73
2022/12/02 09:00:56;;;;;;;;;;;;;;;;;;5091682;28;19919;-73
2022/12/02 09:03:27;;;;;;;;;;;;;;;;;;5088879;28;19908;-70
2022/12/02 09:05:58;;;;;;;;;;;;;;;;;;5081565;28;19924;-70
2022/12/02 09:08:29;;;;;;;;;;;;;;;;;;5087259;28;19908;-73
2022/12/02 09:10:59;;;;;;;;;;;;;;;;;;5087622;28;19916;-74
2022/12/02 09:13:28;;;;;;;;;;;;;;;;;;5085323;28;19916;-73
2022/12/02 09:15:59;;;;;;;;;;;;;;;;;;5075568;28;19919;-75
2022/12/02 09:18:30;;;;;;;;;;;;;;;;;;5076297;28;19912;-75
2022/12/02 09:20:59;;;;;;;;;;;;;;;;;;5092283;28;20284;-74
2022/12/02 09:23:30;;;;;;;;;;;;;;;;;;5086093;28;19995;-69
2022/12/02 09:26:08;;;;;;;;;;;;;;;;;;5079115;28;20382;-73
2022/12/02 09:28:40;;;;;;;;;;;;;;;;;;5072997;28;20292;-73
2022/12/02 09:31:10;;;;;;;;;;;;;;;;;;5075087;28;20360;-72
2022/12/02 09:33:41;;;;;;;;;;;;;;;;;;5090321;28;19912;-79
2022/12/02 09:36:14;;;;;;;;;;;;;;;;;;5093416;28;19908;-75
2022/12/02 09:38:45;;;;;;;;;;;;;;;;;;5092632;28;19908;-75
2022/12/02 09:41:16;;;;;;;;;;;;;;;;;;5089306;28;19912;-76
2022/12/02 09:43:48;;;;;;;;;;;;;;;;;;5091697;28;20384;-72
2022/12/02 09:46:20;;;;;;;;;;;;;;;;;;5079817;28;20347;-72
2022/12/02 09:48:48;;;;;;;;;;;;;;;;;;5060692;28;20020;-75
2022/12/02 09:51:20;;;;;;;;;;;;;;;;;;5071997;28;19939;-74
2022/12/02 09:53:50;;;;;;;;;;;;;;;;;;5071956;28;19954;-71
2022/12/02 09:56:20;;;;;;;;;;;;;;;;;;5054205;28;20285;-72
2022/12/02 09:58:53;;;;;;;;;;;;;;;;;;5072157;28;19908;-73
2022/12/02 10:01:24;;;;;;;;;;;;;;;;;;5068840;28;20348;-71
2022/12/02 10:03:55;;;;;;;;;;;;;;;;;;5072622;28;19909;-71
2022/12/02 10:06:26;;;;;;;;;;;;;;;;;;5053690;28;19974;-73
2022/12/02 10:08:55;;;;;;;;;;;;;;;;;;5070823;28;19912;-72
2022/12/02 10:11:27;;;;;;;;;;;;;;;;;;5071564;28;19912;-73
2022/12/02 10:13:58;;;;;;;;;;;;;;;;;;5080112;28;19955;-71
2022/12/02 10:16:27;;;;;;;;;;;;;;;;;;5072891;28;19915;-71
2022/12/02 10:18:59;;;;;;;;;;;;;;;;;;5090802;28;19939;-70
2022/12/02 10:21:25;;;;;;;;;;;;;;;;;;5073786;28;19916;-72
2022/12/02 10:23:52;;;;;;;;;;;;;;;;;;5092600;28;19912;-75
2022/12/02 10:26:18;;;;;;;;;;;;;;;;;;5074234;28;19970;-74
2022/12/02 10:28:44;;;;;;;;;;;;;;;;;;5073253;28;19980;-76
2022/12/02 10:31:10;;;;;;;;;;;;;;;;;;5070574;28;20050;-76
2022/12/02 10:33:36;;;;;;;;;;;;;;;;;;5073136;28;19931;-75
2022/12/02 10:36:02;;;;;;;;;;;;;;;;;;5073683;28;19912;-74
2022/12/02 10:38:28;;;;;;;;;;;;;;;;;;5092806;28;19909;-72
2022/12/02 10:40:54;;;;;;;;;;;;;;;;;;5074752;28;20276;-73
2022/12/02 10:43:20;;;;;;;;;;;;;;;;;;5092593;28;19991;-73
2022/12/02 10:45:46;;;;;;;;;;;;;;;;;;5074866;28;20356;-73
2022/12/02 10:48:12;;;;;;;;;;;;;;;;;;5075128;28;19916;-74
2022/12/02 10:50:37;;;;;;;;;;;;;;;;;;5069479;28;19912;-73
2022/12/02 10:53:03;;;;;;;;;;;;;;;;;;5096016;28;19977;-73
2022/12/02 10:55:29;;;;;;;;;;;;;;;;;;5095736;28;19922;-73
2022/12/02 10:57:55;;;;;;;;;;;;;;;;;;5074957;28;20383;-74
2022/12/02 11:00:21;;;;;;;;;;;;;;;;;;5058622;28;20389;-74
2022/12/02 11:02:47;;;;;;;;;;;;;;;;;;5073445;28;19947;-73
2022/12/02 11:05:13;;;;;;;;;;;;;;;;;;5075872;28;20388;-72
2022/12/02 11:07:39;;;;;;;;;;;;;;;;;;5074879;28;19920;-74
2022/12/02 11:10:05;;;;;;;;;;;;;;;;;;5057320;28;19909;-71
2022/12/02 11:12:31;;;;;;;;;;;;;;;;;;5057944;28;19920;-73
2022/12/02 11:14:57;;;;;;;;;;;;;;;;;;5075434;28;19909;-71
2022/12/02 11:17:23;;;;;;;;;;;;;;;;;;5055386;28;20269;-72
2022/12/02 11:19:49;;;;;;;;;;;;;;;;;;5075367;28;19909;-72
2022/12/02 11:22:15;;;;;;;;;;;;;;;;;;5075863;28;19916;-72
2022/12/02 11:24:41;;;;;;;;;;;;;;;;;;5076809;28;20441;-72
2022/12/02 11:27:07;;;;;;;;;;;;;;;;;;5075983;28;20292;-72
2022/12/02 11:29:33;;;;;;;;;;;;;;;;;;5075698;28;20261;-72
2022/12/02 11:31:59;;;;;;;;;;;;;;;;;;5058051;28;19909;-72
2022/12/02 11:34:25;;;;;;;;;;;;;;;;;;5075505;28;19909;-72
2022/12/02 11:36:51;;;;;;;;;;;;;;;;;;5076375;28;20003;-73
2022/12/02 11:39:17;;;;;;;;;;;;;;;;;;5075843;28;20005;-73
2022/12/02 11:41:43;;;;;;;;;;;;;;;;;;5076445;28;19913;-72
2022/12/02 11:44:09;;;;;;;;;;;;;;;;;;5082918;28;19927;-72
2022/12/02 11:46:35;;;;;;;;;;;;;;;;;;5095127;28;19924;-72
2022/12/02 11:49:01;;;;;;;;;;;;;;;;;;5096279;28;19912;-73
2022/12/02 11:51:26;;;;;;;;;;;;;;;;;;5096101;28;19963;-73
2022/12/02 11:53:52;;;;;;;;;;;;;;;;;;5100681;28;19994;-73
2022/12/02 11:56:18;;;;;;;;;;;;;;;;;;5116712;28;19915;-73
2022/12/02 11:58:44;;;;;;;;;;;;;;;;;;5115367;28;19912;-73
2022/12/02 12:01:10;;;;;;;;;;;;;;;;;;5116174;28;19943;-73
2022/12/02 12:03:36;;;;;;;;;;;;;;;;;;5116340;28;19918;-73
2022/12/02 12:06:02;;;;;;;;;;;;;;;;;;5116283;27;19916;-73
2022/12/02 12:08:28;;;;;;;;;;;;;;;;;;5115991;28;19915;-73
2022/12/02 12:10:54;;;;;;;;;;;;;;;;;;5116369;28;20378;-73
2022/12/02 12:13:21;;;;;;;;;;;;;;;;;;5112179;28;19915;-73
2022/12/02 12:15:47;;;;;;;;;;;;;;;;;;5095815;28;19908;-77
2022/12/02 12:18:13;;;;;;;;;;;;;;;;;;5095055;28;19908;-75
2022/12/02 12:20:38;;;;;;;;;;;;;;;;;;5094382;28;20399;-75
2022/12/02 12:23:04;;;;;;;;;;;;;;;;;;5095499;28;20321;-72
2022/12/02 12:25:34;;;;;;;;;;;;;;;;;;5095651;28;20003;-72
2022/12/02 12:27:59;;;;;;;;;;;;;;;;;;5095265;28;19923;-72
2022/12/02 12:30:25;;;;;;;;;;;;;;;;;;5094315;28;19908;-72
2022/12/02 12:32:51;;;;;;;;;;;;;;;;;;5095083;28;19912;-73
2022/12/02 12:35:17;;;;;;;;;;;;;;;;;;5093147;28;19970;-72
2022/12/02 12:37:43;;;;;;;;;;;;;;;;;;5093665;28;19915;-72
2022/12/02 12:40:09;;;;;;;;;;;;;;;;;;5095336;28;19908;-72
2022/12/02 12:42:35;;;;;;;;;;;;;;;;;;5094683;28;19952;-72
2022/12/02 13:20:42;;;;;;;;;;;;;;;;;;5074093;28;19915;-72
2022/12/02 13:23:08;;;;;;;;;;;;;;;;;;5074570;28;19962;-72
2022/12/02 13:25:35;;;;;;;;;;;;;;;;;;5073863;28;19954;-72
2022/12/02 13:28:02;;;;;;;;;;;;;;;;;;5074596;28;19946;-72
2022/12/02 13:30:28;;;;;;;;;;;;;;;;;;5074268;28;19962;-72
2022/12/02 13:32:55;;;;;;;;;;;;;;;;;;5073735;28;20268;-72
2022/12/02 13:35:21;;;;;;;;;;;;;;;;;;5073146;28;19912;-73
2022/12/02 13:37:48;;;;;;;;;;;;;;;;;;5073979;28;19935;-73
2022/12/02 13:40:14;;;;;;;;;;;;;;;;;;5073621;28;19912;-73
2022/12/02 13:42:41;;;;;;;;;;;;;;;;;;5074094;28;20436;-72
2022/12/02 13:45:07;;;;;;;;;;;;;;;;;;5088938;28;20210;-72
2022/12/02 13:47:40;;;;;;;;;;;;;;;;;;5092640;28;21347;-72
2022/12/02 13:50:06;;;;;;;;;;;;;;;;;;5094254;28;19946;-72
2022/12/02 13:52:33;;;;;;;;;;;;;;;;;;5094173;28;19912;-72
2022/12/02 13:55:00;;;;;;;;;;;;;;;;;;5093780;28;19909;-72
2022/12/02 13:57:26;;;;;;;;;;;;;;;;;;5094026;28;19908;-72
2022/12/02 13:59:52;;;;;;;;;;;;;;;;;;5092502;28;19995;-72
2022/12/02 14:02:18;;;;;;;;;;;;;;;;;;5094120;28;20368;-73
2022/12/02 14:04:44;;;;;;;;;;;;;;;;;;5093796;28;20021;-73
2022/12/02 14:07:10;;;;;;;;;;;;;;;;;;5093768;28;19916;-72
2022/12/02 14:09:36;;;;;;;;;;;;;;;;;;5094059;28;19915;-72
2022/12/02 14:12:02;;;;;;;;;;;;;;;;;;5094156;28;19914;-72
2022/12/02 14:14:28;;;;;;;;;;;;;;;;;;5093554;28;19909;-72
2022/12/02 14:16:55;;;;;;;;;;;;;;;;;;5093935;28;19907;-72
2022/12/02 14:19:21;;;;;;;;;;;;;;;;;;5094222;28;19962;-72
2022/12/02 14:21:47;;;;;;;;;;;;;;;;;;5092776;28;19915;-72
2022/12/02 14:24:13;;;;;;;;;;;;;;;;;;5092637;28;20261;-72
2022/12/02 14:26:39;;;;;;;;;;;;;;;;;;5092525;28;20318;-72
2022/12/02 14:29:05;;;;;;;;;;;;;;;;;;5092534;28;19908;-72
2022/12/02 14:31:31;;;;;;;;;;;;;;;;;;5093622;28;19912;-72
2022/12/02 14:33:57;;;;;;;;;;;;;;;;;;5094125;28;19912;-72
2022/12/02 14:36:23;;;;;;;;;;;;;;;;;;5092169;28;20012;-72
2022/12/02 14:38:49;;;;;;;;;;;;;;;;;;5094049;28;19908;-73
2022/12/02 14:41:15;;;;;;;;;;;;;;;;;;5093779;28;19908;-72
2022/12/02 14:43:41;;;;;;;;;;;;;;;;;;5093238;28;19913;-73
2022/12/02 14:46:07;;;;;;;;;;;;;;;;;;5094118;28;19923;-72
2022/12/02 14:48:33;;;;;;;;;;;;;;;;;;5093551;28;20322;-72
2022/12/02 14:50:59;;;;;;;;;;;;;;;;;;5092274;28;19916;-73
2022/12/02 14:53:25;;;;;;;;;;;;;;;;;;5093662;28;19954;-72
2022/12/02 14:55:51;;;;;;;;;;;;;;;;;;5093570;28;19912;-72
2022/12/02 14:58:17;;;;;;;;;;;;;;;;;;5091924;28;19909;-72
2022/12/02 15:00:43;;;;;;;;;;;;;;;;;;5093505;28;19909;-73
2022/12/02 15:03:09;;;;;;;;;;;;;;;;;;5093165;28;19908;-73
2022/12/02 15:05:35;;;;;;;;;;;;;;;;;;5093419;28;19931;-72
2022/12/02 15:08:01;;;;;;;;;;;;;;;;;;5093354;28;19920;-73
2022/12/02 15:10:27;;;;;;;;;;;;;;;;;;5093022;28;19999;-72
2022/12/02 15:12:53;;;;;;;;;;;;;;;;;;5093342;28;20245;-72
2022/12/02 15:15:19;;;;;;;;;;;;;;;;;;5093317;28;19908;-72
2022/12/02 15:17:45;;;;;;;;;;;;;;;;;;5092953;28;19908;-72
2022/12/02 15:20:11;;;;;;;;;;;;;;;;;;5093505;28;19912;-72
2022/12/02 15:22:37;;;;;;;;;;;;;;;;;;5092069;28;19908;-72
2022/12/02 15:25:03;;;;;;;;;;;;;;;;;;5092926;28;20287;-72
2022/12/02 15:27:29;;;;;;;;;;;;;;;;;;5093237;28;20360;-72
2022/12/02 15:29:55;;;;;;;;;;;;;;;;;;5093310;28;20323;-72
2022/12/02 15:32:21;;;;;;;;;;;;;;;;;;5093568;28;20010;-73
2022/12/02 15:34:46;;;;;;;;;;;;;;;;;;5096992;28;19912;-72
2022/12/02 15:37:12;;;;;;;;;;;;;;;;;;5097182;28;19914;-73
2022/12/02 15:39:38;;;;;;;;;;;;;;;;;;5096446;28;19908;-73
2022/12/02 15:42:04;;;;;;;;;;;;;;;;;;5095612;28;19909;-72
2022/12/02 15:44:30;;;;;;;;;;;;;;;;;;5096477;28;19924;-72
2022/12/02 15:46:56;;;;;;;;;;;;;;;;;;5096093;28;19974;-72
2022/12/02 15:49:22;;;;;;;;;;;;;;;;;;5095431;28;19915;-72
2022/12/02 15:51:48;;;;;;;;;;;;;;;;;;5096583;28;19923;-73
2022/12/02 15:54:14;;;;;;;;;;;;;;;;;;5096150;28;20041;-72
2022/12/02 15:56:40;;;;;;;;;;;;;;;;;;5096628;28;19962;-72
2022/12/02 15:59:06;;;;;;;;;;;;;;;;;;5095081;28;19927;-73
2022/12/02 16:01:32;;;;;;;;;;;;;;;;;;5095981;28;20261;-72
2022/12/02 16:03:58;;;;;;;;;;;;;;;;;;5095188;28;20261;-72
2022/12/02 16:06:23;;;;;;;;;;;;;;;;;;5094530;28;19916;-72
2022/12/02 16:08:49;;;;;;;;;;;;;;;;;;5096722;28;20406;-72
2022/12/02 16:11:15;;;;;;;;;;;;;;;;;;5096269;28;20357;-72
2022/12/02 16:13:41;;;;;;;;;;;;;;;;;;5096038;28;20364;-72
2022/12/02 16:16:07;;;;;;;;;;;;;;;;;;5095969;28;19908;-72
2022/12/02 16:18:33;;;;;;;;;;;;;;;;;;5096000;28;19908;-73
2022/12/02 16:20:59;;;;;;;;;;;;;;;;;;5095566;28;19908;-73
2022/12/02 16:23:25;;;;;;;;;;;;;;;;;;5095849;28;20315;-73
2022/12/02 16:25:51;;;;;;;;;;;;;;;;;;5096015;28;19912;-72
2022/12/02 16:28:17;;;;;;;;;;;;;;;;;;5095522;28;20279;-72
2022/12/02 16:30:43;;;;;;;;;;;;;;;;;;5094436;28;20348;-73
2022/12/02 16:33:09;;;;;;;;;;;;;;;;;;5095735;28;19908;-73
2022/12/02 16:35:35;;;;;;;;;;;;;;;;;;5095404;28;19954;-73
2022/12/02 16:38:01;;;;;;;;;;;;;;;;;;5095665;28;19954;-73
2022/12/02 16:40:27;;;;;;;;;;;;;;;;;;5095679;28;19916;-73
2022/12/02 16:42:53;;;;;;;;;;;;;;;;;;5095243;28;20015;-73
2022/12/02 16:45:19;;;;;;;;;;;;;;;;;;5094706;28;19929;-73
2022/12/02 16:47:45;;;;;;;;;;;;;;;;;;5095383;28;19969;-73
2022/12/02 16:50:11;;;;;;;;;;;;;;;;;;5095069;28;19909;-73
2022/12/02 16:52:37;;;;;;;;;;;;;;;;;;5095394;28;19915;-74
2022/12/02 16:55:04;;;;;;;;;;;;;;;;;;5095284;28;20360;-73
2022/12/02 16:57:30;;;;;;;;;;;;;;;;;;5095047;28;19908;-73
2022/12/02 16:59:56;;;;;;;;;;;;;;;;;;5095355;28;19916;-74
2022/12/02 17:02:22;;;;;;;;;;;;;;;;;;5095188;28;19909;-74
2022/12/02 17:04:48;;;;;;;;;;;;;;;;;;5094852;28;20014;-73
2022/12/02 17:07:14;;;;;;;;;;;;;;;;;;5095006;28;19920;-73
2022/12/02 17:09:40;;;;;;;;;;;;;;;;;;5093476;28;20396;-73
2022/12/02 17:12:06;;;;;;;;;;;;;;;;;;5095150;28;19908;-73
2022/12/02 17:14:32;;;;;;;;;;;;;;;;;;5093672;28;19934;-73
2022/12/02 17:16:58;;;;;;;;;;;;;;;;;;5094691;28;19915;-73
2022/12/02 17:19:24;;;;;;;;;;;;;;;;;;5094943;28;19916;-73
2022/12/02 17:21:50;;;;;;;;;;;;;;;;;;5094853;28;19999;-73